Time;durP1;ratioP1;P1;durP2;ratioP2;P2;SDS_P1;SDS_P2;PMS_P1;PMS_P2;Temp;Humidity;BMP_temperature;BMP_pressure;BME280_temperature;BME280_humidity;BME280_pressure;Samples;Min_cycle;Max_cycle;Signal;HPM_P1;HPM_P2
2024/01/08 00:02:06;;;;;;;11.55;9.60;;;17.90;59.00;;;;;;5092114;28;20659;-68
2024/01/08 00:04:32;;;;;;;11.20;9.77;;;17.90;59.10;;;;;;5104589;28;20216;-68
2024/01/08 00:06:58;;;;;;;11.45;9.60;;;17.90;59.20;;;;;;5080418;28;20583;-67
2024/01/08 00:09:23;;;;;;;11.60;9.55;;;17.90;59.00;;;;;;5088284;28;20288;-69
2024/01/08 00:11:49;;;;;;;10.40;8.93;;;17.80;59.00;;;;;;5080365;28;20192;-68
2024/01/08 00:14:15;;;;;;;10.50;9.15;;;17.90;59.20;;;;;;5088112;28;20261;-68
2024/01/08 00:16:41;;;;;;;10.38;8.82;;;17.90;59.20;;;;;;5079547;28;20272;-68
2024/01/08 00:19:07;;;;;;;11.30;9.15;;;17.80;59.00;;;;;;5097474;28;20208;-68
2024/01/08 00:21:32;;;;;;;9.75;8.48;;;17.80;59.10;;;;;;5107495;27;20211;-68
2024/01/08 00:23:58;;;;;;;10.80;9.32;;;17.80;59.00;;;;;;5077788;28;20205;-68
2024/01/08 00:26:24;;;;;;;9.65;8.40;;;17.90;59.00;;;;;;5096104;28;20219;-68
2024/01/08 00:28:50;;;;;;;9.93;8.57;;;17.80;59.00;;;;;;5082446;28;20193;-68
2024/01/08 00:31:16;;;;;;;11.07;9.25;;;17.90;59.00;;;;;;5088024;28;20199;-68
2024/01/08 00:33:42;;;;;;;9.90;8.15;;;17.90;58.90;;;;;;5097754;28;20224;-69
2024/01/08 00:36:07;;;;;;;9.93;8.40;;;17.80;58.90;;;;;;5104612;28;20200;-68
2024/01/08 00:38:33;;;;;;;9.23;7.93;;;17.80;59.00;;;;;;5098940;28;20189;-68
2024/01/08 00:40:59;;;;;;;9.98;7.75;;;17.80;59.00;;;;;;5090047;28;20188;-68
2024/01/08 00:43:24;;;;;;;10.90;8.43;;;17.80;58.80;;;;;;5109926;28;20294;-68
2024/01/08 00:45:50;;;;;;;9.82;7.88;;;17.90;58.90;;;;;;5076731;28;20191;-68
2024/01/08 00:48:16;;;;;;;9.85;8.13;;;17.90;58.90;;;;;;5090497;28;20193;-68
2024/01/08 00:50:41;;;;;;;9.63;8.05;;;17.80;58.80;;;;;;5090069;28;20197;-68
2024/01/08 00:53:09;;;;;;;9.38;7.82;;;17.90;58.90;;;;;;5090311;28;20213;-68
2024/01/08 00:55:35;;;;;;;9.55;8.10;;;17.90;58.90;;;;;;5075114;28;20195;-68
2024/01/08 00:58:01;;;;;;;9.80;8.13;;;17.80;58.80;;;;;;5110887;28;20263;-68
2024/01/08 01:00:26;;;;;;;8.75;7.63;;;17.80;58.80;;;;;;5076122;28;20189;-68
2024/01/08 01:02:52;;;;;;;9.70;7.82;;;17.90;58.90;;;;;;5093091;28;20188;-69
2024/01/08 01:05:18;;;;;;;8.68;7.47;;;17.80;58.80;;;;;;5084642;28;20220;-68
2024/01/08 01:07:44;;;;;;;9.23;7.72;;;17.80;58.80;;;;;;5112774;28;20203;-68
2024/01/08 01:10:10;;;;;;;9.30;7.75;;;17.80;59.00;;;;;;5107229;28;20228;-67
2024/01/08 01:12:36;;;;;;;8.70;7.15;;;17.80;58.90;;;;;;5101291;28;20243;-68
2024/01/08 01:15:02;;;;;;;8.60;7.18;;;17.80;58.90;;;;;;5092637;28;20252;-68
2024/01/08 01:17:28;;;;;;;8.65;7.13;;;17.80;58.80;;;;;;5091375;28;20189;-68
2024/01/08 01:19:53;;;;;;;8.20;7.05;;;17.80;58.90;;;;;;5092488;28;20256;-68
2024/01/08 01:22:19;;;;;;;8.52;7.25;;;17.80;58.80;;;;;;5073144;28;20225;-68
2024/01/08 01:24:45;;;;;;;8.77;7.03;;;17.80;58.80;;;;;;5078072;28;20200;-68
2024/01/08 01:27:11;;;;;;;7.72;6.88;;;17.80;58.80;;;;;;5078288;28;20579;-68
2024/01/08 01:29:37;;;;;;;8.00;7.18;;;17.80;58.80;;;;;;5091110;28;20284;-68
2024/01/08 01:32:04;;;;;;;8.38;7.47;;;17.80;58.80;;;;;;5071067;28;20203;-68
2024/01/08 01:34:30;;;;;;;7.78;6.57;;;17.80;58.80;;;;;;5099905;28;20219;-68
2024/01/08 01:36:56;;;;;;;8.63;7.15;;;17.80;58.80;;;;;;5084473;28;20566;-69
2024/01/08 01:39:22;;;;;;;8.13;6.95;;;17.80;58.80;;;;;;5102670;28;20189;-69
2024/01/08 01:41:51;;;;;;;9.48;7.70;;;17.80;58.80;;;;;;5098570;28;20242;-68
2024/01/08 01:44:16;;;;;;;8.85;7.13;;;17.80;58.80;;;;;;5091095;28;20212;-68
2024/01/08 01:46:49;;;;;;;8.18;7.18;;;17.80;58.80;;;;;;5084602;28;20196;-68
2024/01/08 01:49:20;;;;;;;7.70;6.90;;;17.80;58.80;;;;;;5093515;28;20197;-69
2024/01/08 01:51:48;;;;;;;8.07;6.78;;;17.80;58.80;;;;;;5110389;28;20275;-68
2024/01/08 01:54:16;;;;;;;7.78;6.80;;;17.80;58.70;;;;;;5098550;28;20221;-68
2024/01/08 01:56:49;;;;;;;7.22;6.32;;;17.80;58.80;;;;;;5099401;28;20188;-68
2024/01/08 01:59:19;;;;;;;6.63;5.72;;;17.80;58.80;;;;;;5095127;28;20267;-68
2024/01/08 02:01:45;;;;;;;8.32;6.40;;;17.80;58.80;;;;;;5101526;28;20180;-68
2024/01/08 02:04:14;;;;;;;7.25;6.45;;;17.80;58.70;;;;;;5104347;28;20208;-68
2024/01/08 02:06:41;;;;;;;6.80;6.10;;;17.80;58.80;;;;;;5104076;28;20315;-68
2024/01/08 02:09:07;;;;;;;7.18;6.32;;;17.70;58.80;;;;;;5093288;28;20197;-68
2024/01/08 02:11:33;;;;;;;6.43;5.82;;;17.70;58.60;;;;;;5094179;28;20196;-68
2024/01/08 02:13:59;;;;;;;6.25;5.65;;;17.70;58.60;;;;;;5092965;28;20235;-68
2024/01/08 02:16:25;;;;;;;7.03;6.28;;;17.80;58.60;;;;;;5095789;28;20185;-68
2024/01/08 02:18:51;;;;;;;6.90;5.93;;;17.80;58.50;;;;;;5082538;28;20220;-68
2024/01/08 02:21:17;;;;;;;6.55;5.85;;;17.80;58.60;;;;;;5088562;28;20207;-68
2024/01/08 02:23:43;;;;;;;6.57;5.88;;;17.80;58.70;;;;;;5104891;28;20684;-69
2024/01/08 02:26:11;;;;;;;6.97;6.25;;;17.80;58.50;;;;;;5087152;28;20185;-68
2024/01/08 02:28:37;;;;;;;6.55;5.68;;;17.80;58.50;;;;;;5104408;28;20259;-68
2024/01/08 02:31:02;;;;;;;7.20;5.90;;;17.80;58.60;;;;;;5095806;28;20252;-68
2024/01/08 02:33:28;;;;;;;5.97;5.40;;;17.80;58.50;;;;;;5107122;28;20282;-68
2024/01/08 02:35:54;;;;;;;6.28;5.68;;;17.80;58.80;;;;;;5078224;28;20183;-68
2024/01/08 02:38:20;;;;;;;5.97;5.35;;;17.80;58.50;;;;;;5078185;28;20188;-68
2024/01/08 02:40:46;;;;;;;6.15;5.55;;;17.80;58.40;;;;;;5111282;27;20204;-68
2024/01/08 02:43:11;;;;;;;5.72;4.95;;;17.70;58.40;;;;;;5106351;28;20219;-68
2024/01/08 02:45:37;;;;;;;7.45;5.53;;;17.80;58.40;;;;;;5077648;28;20203;-68
2024/01/08 02:48:03;;;;;;;6.13;5.53;;;17.80;58.30;;;;;;5075546;28;20200;-68
2024/01/08 02:50:29;;;;;;;6.00;5.40;;;17.80;58.40;;;;;;5094555;28;20571;-68
2024/01/08 02:52:55;;;;;;;6.07;5.10;;;17.80;58.40;;;;;;5076671;28;20212;-67
2024/01/08 02:55:20;;;;;;;5.57;5.03;;;17.80;58.30;;;;;;5091276;28;20239;-68
2024/01/08 02:57:46;;;;;;;6.43;5.10;;;17.70;58.40;;;;;;5074415;28;20201;-69
2024/01/08 03:00:12;;;;;;;6.05;5.25;;;17.70;58.30;;;;;;5095510;28;20168;-68
2024/01/08 03:02:39;;;;;;;6.18;5.30;;;17.70;58.30;;;;;;5086724;28;20189;-68
2024/01/08 03:05:05;;;;;;;5.20;4.70;;;17.70;58.30;;;;;;5092330;28;20208;-68
2024/01/08 03:07:31;;;;;;;6.07;5.20;;;17.70;58.30;;;;;;5101287;28;20204;-68
2024/01/08 03:09:58;;;;;;;6.50;5.00;;;17.70;58.20;;;;;;5075124;28;20177;-68
2024/01/08 03:12:24;;;;;;;5.25;4.75;;;17.70;58.40;;;;;;5071890;28;20182;-68
2024/01/08 03:14:51;;;;;;;5.40;4.82;;;17.70;58.20;;;;;;5091577;28;20223;-68
2024/01/08 03:17:17;;;;;;;5.38;4.72;;;17.70;58.20;;;;;;5092069;28;20185;-68
2024/01/08 03:19:43;;;;;;;5.35;4.82;;;17.70;58.20;;;;;;5089625;28;20191;-68
2024/01/08 03:22:08;;;;;;;5.40;4.80;;;17.70;58.20;;;;;;5090053;28;20189;-68
2024/01/08 03:24:36;;;;;;;5.57;4.75;;;17.70;58.10;;;;;;5088014;28;20209;-68
2024/01/08 03:27:02;;;;;;;5.03;4.60;;;17.70;58.00;;;;;;5091980;28;20769;-68
2024/01/08 03:29:28;;;;;;;5.20;4.70;;;17.70;58.00;;;;;;5104705;28;20203;-69
2024/01/08 03:31:54;;;;;;;5.85;4.68;;;17.70;58.00;;;;;;5093542;28;20192;-68
2024/01/08 03:34:20;;;;;;;4.50;4.10;;;17.70;57.90;;;;;;5107472;27;20222;-68
2024/01/08 03:36:48;;;;;;;4.82;4.30;;;17.70;57.90;;;;;;5096183;28;20188;-68
2024/01/08 03:39:15;;;;;;;5.05;4.55;;;17.70;57.90;;;;;;5108387;28;20177;-68
2024/01/08 03:41:42;;;;;;;4.53;4.10;;;17.70;58.00;;;;;;5106212;28;20180;-68
2024/01/08 03:44:09;;;;;;;4.50;4.00;;;17.70;58.00;;;;;;5074453;28;20209;-67
2024/01/08 03:46:39;;;;;;;4.57;4.13;;;17.70;57.90;;;;;;5094954;28;20214;-68
2024/01/08 03:49:05;;;;;;;5.35;4.50;;;17.70;57.90;;;;;;5081407;28;20189;-68
2024/01/08 03:51:31;;;;;;;5.18;4.68;;;17.70;58.00;;;;;;5106709;28;20185;-68
2024/01/08 03:53:57;;;;;;;4.32;3.78;;;17.70;57.90;;;;;;5091103;28;20213;-68
2024/01/08 03:56:23;;;;;;;4.25;3.85;;;17.70;57.90;;;;;;5086368;28;20224;-68
2024/01/08 03:58:48;;;;;;;4.90;4.40;;;17.70;57.90;;;;;;5078136;28;20280;-68
2024/01/08 04:01:14;;;;;;;4.55;4.13;;;17.70;57.90;;;;;;5085612;28;20181;-68
2024/01/08 04:03:41;;;;;;;5.05;4.55;;;17.60;57.80;;;;;;5078776;28;20210;-68
2024/01/08 04:06:07;;;;;;;4.40;4.00;;;17.60;57.90;;;;;;5091209;28;20185;-69
2024/01/08 04:08:32;;;;;;;4.60;4.20;;;17.70;57.90;;;;;;5081127;28;20690;-68
2024/01/08 04:10:58;;;;;;;4.63;3.95;;;17.70;57.80;;;;;;5092458;28;20310;-68
2024/01/08 04:13:24;;;;;;;4.57;3.80;;;17.70;57.80;;;;;;5104433;28;20678;-68
2024/01/08 04:15:50;;;;;;;4.03;3.63;;;17.70;57.80;;;;;;5107133;28;20184;-68
2024/01/08 04:18:16;;;;;;;4.10;3.70;;;17.70;57.70;;;;;;5086382;28;20221;-68
2024/01/08 04:20:42;;;;;;;4.20;3.80;;;17.70;57.80;;;;;;5072112;28;20208;-68
2024/01/08 04:23:08;;;;;;;4.03;3.63;;;17.70;57.70;;;;;;5090607;28;20223;-67
2024/01/08 04:25:34;;;;;;;4.22;3.83;;;17.70;57.70;;;;;;5090953;28;20185;-67
2024/01/08 04:28:00;;;;;;;3.97;3.58;;;17.70;57.70;;;;;;5083885;28;20648;-68
2024/01/08 04:30:26;;;;;;;4.15;3.75;;;17.60;57.60;;;;;;5074148;28;20195;-67
2024/01/08 04:32:53;;;;;;;4.03;3.60;;;17.60;57.60;;;;;;5073913;28;20181;-67
2024/01/08 04:35:19;;;;;;;4.53;3.80;;;17.60;57.60;;;;;;5074209;28;20189;-67
2024/01/08 04:37:44;;;;;;;4.20;3.80;;;17.60;57.60;;;;;;5100439;28;20177;-67
2024/01/08 04:40:11;;;;;;;3.72;3.40;;;17.70;57.60;;;;;;5094795;28;20177;-67
2024/01/08 04:42:37;;;;;;;3.63;3.33;;;17.70;57.60;;;;;;5093184;28;20219;-67
2024/01/08 04:45:03;;;;;;;4.05;3.65;;;17.60;57.50;;;;;;5094417;28;20240;-68
2024/01/08 04:47:29;;;;;;;3.78;3.47;;;17.60;57.50;;;;;;5075321;28;20191;-67
2024/01/08 04:49:54;;;;;;;3.10;2.85;;;17.60;57.60;;;;;;5084395;28;20176;-68
2024/01/08 04:52:20;;;;;;;3.58;3.28;;;17.60;57.50;;;;;;5091998;28;20188;-68
2024/01/08 04:54:46;;;;;;;3.85;3.53;;;17.60;57.50;;;;;;5092566;28;20217;-67
2024/01/08 04:57:12;;;;;;;4.28;3.53;;;17.60;57.40;;;;;;5074870;28;20270;-67
2024/01/08 04:59:42;;;;;;;3.45;3.05;;;17.70;57.60;;;;;;5076204;28;20216;-67
2024/01/08 05:02:11;;;;;;;3.67;3.38;;;17.60;57.50;;;;;;5068713;28;20181;-68
2024/01/08 05:04:37;;;;;;;4.03;3.63;;;17.60;57.40;;;;;;5090444;28;20305;-68
2024/01/08 05:07:04;;;;;;;3.38;3.08;;;17.60;57.50;;;;;;5093453;28;20260;-68
2024/01/08 05:09:30;;;;;;;3.75;3.30;;;17.60;57.40;;;;;;5095598;28;20266;-67
2024/01/08 05:11:57;;;;;;;3.47;3.17;;;17.60;57.30;;;;;;5079652;28;20241;-67
2024/01/08 05:14:22;;;;;;;4.07;3.40;;;17.60;57.30;;;;;;5095649;28;20212;-67
2024/01/08 05:16:48;;;;;;;3.58;3.28;;;17.60;57.30;;;;;;5108547;28;20664;-68
2024/01/08 05:19:14;;;;;;;3.33;3.03;;;17.60;57.30;;;;;;5077731;28;20591;-68
2024/01/08 05:21:40;;;;;;;3.17;2.90;;;17.60;57.20;;;;;;5094217;28;20188;-68
2024/01/08 05:24:08;;;;;;;3.20;2.90;;;17.60;57.30;;;;;;5096035;28;20213;-68
2024/01/08 05:26:34;;;;;;;3.42;3.13;;;17.60;57.30;;;;;;5095366;28;20314;-68
2024/01/08 05:29:00;;;;;;;3.15;2.95;;;17.60;57.20;;;;;;5096239;28;20176;-68
2024/01/08 05:31:25;;;;;;;3.20;2.90;;;17.60;57.30;;;;;;5094147;28;20184;-68
2024/01/08 05:33:51;;;;;;;3.40;3.10;;;17.60;57.30;;;;;;5109340;28;20221;-68
2024/01/08 05:36:17;;;;;;;3.33;2.95;;;17.60;57.20;;;;;;5101801;28;20223;-68
2024/01/08 05:38:43;;;;;;;3.13;2.83;;;17.60;57.30;;;;;;5086238;28;20193;-68
2024/01/08 05:41:08;;;;;;;3.30;3.00;;;17.60;57.20;;;;;;5094694;28;20188;-68
2024/01/08 05:43:37;;;;;;;2.90;2.70;;;17.60;57.80;;;;;;5093640;28;20208;-68
2024/01/08 05:46:07;;;;;;;3.58;3.28;;;17.60;57.30;;;;;;5093547;28;20193;-68
2024/01/08 05:48:39;;;;;;;3.38;3.03;;;17.60;57.20;;;;;;5094688;28;20233;-69
2024/01/08 05:51:09;;;;;;;3.40;3.10;;;17.60;57.20;;;;;;5094589;28;20268;-69
2024/01/08 05:53:35;;;;;;;2.85;2.55;;;17.60;57.20;;;;;;5105948;28;20211;-68
2024/01/08 05:56:02;;;;;;;3.20;2.90;;;17.60;57.20;;;;;;5096626;28;20227;-68
2024/01/08 05:58:28;;;;;;;3.42;2.92;;;17.60;57.20;;;;;;5094433;28;20184;-68
2024/01/08 06:00:54;;;;;;;2.97;2.67;;;17.60;57.10;;;;;;5095027;28;20189;-68
2024/01/08 06:03:22;;;;;;;2.80;2.60;;;17.60;57.10;;;;;;5076569;28;20212;-68
2024/01/08 06:05:49;;;;;;;3.22;2.92;;;17.60;57.00;;;;;;5076794;28;20185;-68
2024/01/08 06:08:14;;;;;;;3.08;2.78;;;17.60;57.00;;;;;;5093637;28;20229;-68
2024/01/08 06:10:40;;;;;;;3.30;3.00;;;17.60;57.00;;;;;;5100660;28;20209;-68
2024/01/08 06:13:09;;;;;;;2.70;2.50;;;17.60;57.00;;;;;;5094485;28;20264;-68
2024/01/08 06:15:35;;;;;;;3.10;2.80;;;17.60;57.00;;;;;;5084343;28;20181;-68
2024/01/08 06:18:02;;;;;;;2.78;2.58;;;17.60;57.00;;;;;;5093340;28;20191;-68
2024/01/08 06:20:28;;;;;;;2.58;2.38;;;17.60;57.00;;;;;;5094540;28;20314;-67
2024/01/08 06:22:53;;;;;;;3.60;2.72;;;17.60;57.00;;;;;;5094042;28;20675;-68
2024/01/08 06:25:19;;;;;;;2.88;2.67;;;17.60;57.00;;;;;;5109702;28;20235;-67
2024/01/08 06:27:45;;;;;;;3.08;2.70;;;17.60;57.00;;;;;;5101071;28;20195;-68
2024/01/08 06:30:11;;;;;;;3.38;2.90;;;17.60;56.90;;;;;;5108473;28;20197;-68
2024/01/08 06:32:37;;;;;;;3.17;2.88;;;17.60;57.00;;;;;;5088635;28;20203;-68
2024/01/08 06:35:03;;;;;;;2.95;2.65;;;17.60;56.90;;;;;;5076191;28;20221;-68
2024/01/08 06:37:29;;;;;;;2.75;2.53;;;17.60;56.90;;;;;;5110951;27;20659;-68
2024/01/08 06:39:54;;;;;;;2.65;2.45;;;17.60;57.00;;;;;;5094001;28;20234;-68
2024/01/08 06:42:20;;;;;;;3.08;2.83;;;17.60;56.90;;;;;;5091647;28;20242;-68
2024/01/08 06:44:46;;;;;;;3.17;2.92;;;17.60;57.00;;;;;;5092502;28;20208;-68
2024/01/08 06:47:12;;;;;;;2.60;2.40;;;17.60;57.00;;;;;;5109007;28;20200;-68
2024/01/08 06:49:37;;;;;;;2.60;2.40;;;17.60;56.90;;;;;;5093184;28;20235;-68
2024/01/08 06:52:03;;;;;;;2.60;2.40;;;17.60;56.90;;;;;;5092353;28;20196;-68
2024/01/08 06:54:29;;;;;;;2.70;2.50;;;17.60;56.90;;;;;;5088564;28;20248;-68
2024/01/08 06:56:55;;;;;;;3.83;2.85;;;17.60;56.90;;;;;;5073685;28;20213;-68
2024/01/08 06:59:20;;;;;;;2.42;2.22;;;17.60;56.80;;;;;;5073151;28;20211;-68
2024/01/08 07:01:48;;;;;;;3.08;2.78;;;17.50;56.80;;;;;;5089907;28;20181;-69
2024/01/08 07:04:14;;;;;;;2.80;2.60;;;17.60;56.80;;;;;;5076197;28;20215;-67
2024/01/08 07:06:40;;;;;;;2.60;2.40;;;17.60;56.70;;;;;;5093400;28;20185;-68
2024/01/08 07:09:06;;;;;;;2.90;2.70;;;17.60;56.80;;;;;;5075581;28;20183;-68
2024/01/08 07:11:32;;;;;;;3.00;2.80;;;17.50;56.60;;;;;;5091810;28;20207;-68
2024/01/08 07:13:58;;;;;;;3.00;2.70;;;17.50;56.70;;;;;;5093107;28;20213;-68
2024/01/08 07:16:25;;;;;;;2.72;2.50;;;17.50;56.60;;;;;;5075613;28;20181;-68
2024/01/08 07:18:51;;;;;;;2.75;2.55;;;17.50;56.70;;;;;;5101989;28;20185;-68
2024/01/08 07:21:17;;;;;;;2.97;2.60;;;17.60;56.70;;;;;;5092156;28;20185;-68
2024/01/08 07:23:48;;;;;;;2.50;2.30;;;17.60;56.50;;;;;;5105774;28;20228;-68
2024/01/08 07:26:14;;;;;;;3.10;2.50;;;17.60;56.60;;;;;;5092081;28;20676;-68
2024/01/08 07:28:44;;;;;;;2.65;2.45;;;17.60;56.70;;;;;;5092009;28;20192;-68
2024/01/08 07:31:11;;;;;;;2.88;2.67;;;17.60;56.80;;;;;;5091085;28;20555;-68
2024/01/08 07:33:37;;;;;;;2.85;2.65;;;17.50;56.50;;;;;;5095612;28;20708;-68
2024/01/08 07:36:05;;;;;;;2.67;2.47;;;17.60;56.60;;;;;;5108688;28;20223;-68
2024/01/08 07:38:30;;;;;;;2.55;2.35;;;17.60;56.60;;;;;;5108494;28;20200;-68
2024/01/08 07:40:56;;;;;;;3.00;2.70;;;17.60;57.20;;;;;;5083421;28;20181;-68
2024/01/08 07:43:22;;;;;;;2.55;2.35;;;17.50;56.60;;;;;;5083094;28;20234;-68
2024/01/08 07:45:48;;;;;;;2.70;2.50;;;17.50;56.50;;;;;;5100437;28;20272;-68
2024/01/08 07:48:13;;;;;;;2.60;2.40;;;17.60;56.50;;;;;;5074815;28;20687;-68
2024/01/08 07:50:39;;;;;;;2.55;2.33;;;17.50;56.40;;;;;;5091451;28;20188;-68
2024/01/08 07:53:05;;;;;;;2.50;2.30;;;17.50;56.40;;;;;;5074147;28;20200;-68
2024/01/08 07:55:30;;;;;;;2.58;2.38;;;17.50;56.40;;;;;;5108474;28;20180;-67
2024/01/08 07:57:56;;;;;;;2.60;2.40;;;17.50;56.40;;;;;;5091580;28;20189;-68
2024/01/08 08:00:24;;;;;;;2.28;2.08;;;17.50;56.40;;;;;;5097622;28;20271;-68
2024/01/08 08:02:50;;;;;;;3.05;2.70;;;17.50;56.40;;;;;;5088669;28;20185;-68
2024/01/08 08:05:16;;;;;;;2.40;2.20;;;17.60;56.40;;;;;;5095171;28;20200;-68
2024/01/08 08:07:41;;;;;;;2.70;2.50;;;17.50;56.30;;;;;;5095154;28;20172;-68
2024/01/08 08:10:08;;;;;;;2.47;2.28;;;17.50;56.30;;;;;;5095750;28;20184;-68
2024/01/08 08:12:35;;;;;;;2.63;2.38;;;17.50;56.30;;;;;;5079325;28;20198;-68
2024/01/08 08:15:01;;;;;;;2.65;2.35;;;17.60;56.40;;;;;;5090937;28;20722;-68
2024/01/08 08:17:27;;;;;;;2.60;2.38;;;17.50;56.40;;;;;;5074231;28;20181;-68
2024/01/08 08:19:53;;;;;;;2.38;2.17;;;17.50;56.30;;;;;;5090985;28;20181;-68
2024/01/08 08:22:19;;;;;;;2.63;2.42;;;17.50;56.30;;;;;;5070252;28;20188;-68
2024/01/08 08:24:47;;;;;;;2.50;2.30;;;17.50;56.40;;;;;;5121234;27;20203;-68
2024/01/08 08:27:13;;;;;;;2.90;2.67;;;17.50;56.30;;;;;;5110790;28;20184;-68
2024/01/08 08:29:48;;;;;;;2.55;2.35;;;17.50;56.30;;;;;;5085872;28;20177;-68
2024/01/08 08:32:14;;;;;;;2.45;2.25;;;17.50;56.20;;;;;;5078487;28;20191;-68
2024/01/08 08:34:39;;;;;;;2.10;1.92;;;17.50;56.30;;;;;;5094575;28;20278;-68
2024/01/08 08:37:09;;;;;;;3.28;2.97;;;17.50;56.30;;;;;;5089957;28;20184;-68
2024/01/08 08:39:38;;;;;;;2.15;1.95;;;17.50;56.30;;;;;;5074234;28;20181;-68
2024/01/08 08:42:08;;;;;;;2.40;2.20;;;17.50;56.30;;;;;;5110986;28;20184;-68
2024/01/08 08:44:34;;;;;;;2.50;2.30;;;17.50;56.30;;;;;;5112268;27;20204;-68
2024/01/08 08:47:02;;;;;;;2.50;2.30;;;17.50;56.10;;;;;;5093596;28;20195;-67
2024/01/08 08:49:28;;;;;;;2.45;2.25;;;17.50;56.10;;;;;;5073635;28;20189;-68
2024/01/08 08:51:54;;;;;;;2.60;2.40;;;17.60;56.30;;;;;;5107649;28;20317;-68
2024/01/08 08:54:19;;;;;;;2.28;2.08;;;17.50;56.10;;;;;;5102219;28;20215;-67
2024/01/08 08:56:45;;;;;;;2.50;2.30;;;17.50;56.10;;;;;;5093001;28;20183;-69
2024/01/08 08:59:11;;;;;;;2.22;2.10;;;17.50;56.10;;;;;;5082522;28;20253;-68
2024/01/08 09:01:37;;;;;;;2.70;2.50;;;17.50;56.10;;;;;;5107205;28;20183;-68
2024/01/08 09:04:03;;;;;;;2.50;2.30;;;17.60;56.10;;;;;;5092219;28;20208;-68
2024/01/08 09:06:33;;;;;;;2.03;1.92;;;17.60;56.10;;;;;;5081665;28;20185;-68
2024/01/08 09:08:59;;;;;;;2.50;2.30;;;17.60;56.10;;;;;;5091442;28;20186;-68
2024/01/08 09:11:26;;;;;;;2.58;2.38;;;17.60;56.10;;;;;;5084646;28;20199;-67
2024/01/08 09:13:52;;;;;;;2.70;2.50;;;17.50;56.00;;;;;;5099944;28;20216;-68
2024/01/08 09:16:18;;;;;;;2.75;2.55;;;17.60;56.10;;;;;;5103089;28;20304;-68
2024/01/08 09:18:45;;;;;;;2.40;2.20;;;17.60;56.20;;;;;;5101953;28;20202;-68
2024/01/08 09:21:12;;;;;;;2.47;2.28;;;17.50;56.00;;;;;;5085535;28;20184;-68
2024/01/08 09:23:40;;;;;;;2.38;2.17;;;17.60;56.10;;;;;;5101761;28;20227;-68
2024/01/08 09:26:05;;;;;;;2.80;2.50;;;17.50;56.00;;;;;;5100941;28;20224;-68
2024/01/08 09:28:32;;;;;;;2.35;2.17;;;17.60;56.10;;;;;;5101653;28;20223;-68
2024/01/08 09:31:01;;;;;;;2.13;1.92;;;17.60;56.10;;;;;;5100863;28;20181;-68
2024/01/08 09:33:27;;;;;;;2.47;2.28;;;17.60;56.00;;;;;;5087344;28;20214;-68
2024/01/08 09:35:53;;;;;;;2.72;2.53;;;17.60;56.00;;;;;;5091232;28;20270;-68
2024/01/08 09:38:18;;;;;;;2.78;2.55;;;17.60;56.00;;;;;;5097872;28;20233;-68
2024/01/08 09:40:45;;;;;;;2.33;2.13;;;17.50;55.80;;;;;;5105341;28;20180;-68
2024/01/08 09:43:16;;;;;;;2.67;2.47;;;17.60;55.80;;;;;;5077841;28;20185;-68
2024/01/08 09:46:07;;;;;;;3.20;2.90;;;17.60;55.90;;;;;;5101472;28;20659;-68
2024/01/08 09:48:35;;;;;;;2.80;2.60;;;17.60;55.80;;;;;;5091976;28;20214;-68
2024/01/08 09:51:03;;;;;;;2.78;2.55;;;17.60;55.90;;;;;;5092220;28;20229;-68
2024/01/08 09:53:30;;;;;;;2.67;2.47;;;17.60;56.00;;;;;;5096963;28;20212;-68
2024/01/08 09:55:57;;;;;;;2.50;2.30;;;17.60;56.00;;;;;;5090992;28;20193;-68
2024/01/08 09:58:26;;;;;;;2.65;2.45;;;17.60;56.00;;;;;;5083730;28;20268;-68
2024/01/08 10:00:53;;;;;;;2.78;2.38;;;17.60;55.90;;;;;;5094107;28;20193;-68
2024/01/08 10:03:19;;;;;;;2.50;2.30;;;17.60;56.00;;;;;;5117428;27;20204;-68
2024/01/08 10:05:45;;;;;;;2.67;2.47;;;17.60;55.90;;;;;;5091814;28;20259;-67
2024/01/08 10:08:11;;;;;;;3.15;2.95;;;17.50;55.80;;;;;;5094884;28;20196;-68
2024/01/08 10:10:38;;;;;;;3.00;2.72;;;17.60;55.80;;;;;;5098069;28;20181;-67
2024/01/08 10:13:04;;;;;;;2.63;2.42;;;17.60;55.90;;;;;;5109307;28;20189;-68
2024/01/08 10:15:30;;;;;;;2.85;2.65;;;17.60;55.80;;;;;;5076700;28;20185;-67
2024/01/08 10:17:59;;;;;;;2.25;2.15;;;17.60;55.80;;;;;;5110448;28;20191;-67
2024/01/08 10:20:25;;;;;;;2.80;2.60;;;17.60;55.80;;;;;;5084791;28;20189;-68
2024/01/08 10:23:07;;;;;;;2.65;2.45;;;17.50;55.70;;;;;;5089554;28;20675;-67
2024/01/08 10:25:38;;;;;;;2.80;2.60;;;17.60;55.70;;;;;;5081482;28;20190;-67
2024/01/08 10:28:13;;;;;;;2.70;2.50;;;17.60;55.70;;;;;;5092313;28;20219;-67
2024/01/08 10:30:40;;;;;;;2.58;2.38;;;17.60;55.70;;;;;;5099614;28;20653;-68
2024/01/08 10:33:08;;;;;;;2.70;2.50;;;17.50;55.70;;;;;;5077249;28;20173;-68
2024/01/08 10:35:35;;;;;;;2.60;2.40;;;17.60;55.60;;;;;;5075178;28;20181;-68
2024/01/08 10:38:03;;;;;;;2.65;2.45;;;17.60;55.70;;;;;;5094139;28;20189;-69
2024/01/08 10:40:30;;;;;;;2.67;2.47;;;17.60;55.70;;;;;;5083835;28;20189;-68
2024/01/08 10:42:56;;;;;;;2.60;2.40;;;17.60;55.70;;;;;;5083334;28;20185;-68
2024/01/08 10:45:22;;;;;;;3.00;2.80;;;17.60;55.60;;;;;;5075947;28;20717;-68
2024/01/08 10:48:01;;;;;;;3.03;2.70;;;17.60;55.70;;;;;;5100515;28;20224;-68
2024/01/08 10:50:29;;;;;;;3.08;2.88;;;17.60;55.70;;;;;;5104508;28;20306;-67
2024/01/08 10:52:57;;;;;;;2.90;2.70;;;17.60;55.60;;;;;;5076797;28;20181;-66
2024/01/08 10:55:23;;;;;;;2.80;2.60;;;17.60;55.60;;;;;;5106557;28;20177;-68
2024/01/08 10:58:07;;;;;;;3.13;2.67;;;17.60;55.60;;;;;;5093647;28;20188;-68
2024/01/08 11:00:34;;;;;;;2.78;2.58;;;17.60;55.60;;;;;;5087743;28;20176;-68
2024/01/08 11:03:02;;;;;;;2.90;2.65;;;17.60;55.60;;;;;;5075159;28;20272;-68
2024/01/08 11:05:31;;;;;;;2.63;2.42;;;17.60;55.60;;;;;;5096688;28;20184;-68
2024/01/08 11:07:58;;;;;;;2.92;2.55;;;17.60;55.60;;;;;;5092412;28;20192;-67
2024/01/08 11:10:24;;;;;;;2.60;2.40;;;17.60;55.60;;;;;;5080133;28;20203;-68
2024/01/08 11:12:57;;;;;;;3.20;2.90;;;17.60;55.60;;;;;;5111560;27;20193;-68
2024/01/08 11:15:28;;;;;;;2.95;2.63;;;17.60;55.60;;;;;;5069089;28;20199;-68
2024/01/08 11:17:58;;;;;;;2.50;2.30;;;17.60;55.60;;;;;;5091763;28;20216;-68
2024/01/08 11:20:46;;;;;;;2.90;2.70;;;17.60;55.60;;;;;;5086600;28;20179;-67
2024/01/08 11:23:35;;;;;;;2.67;2.47;;;17.60;55.60;;;;;;5097935;28;20193;-68
2024/01/08 11:26:24;;;;;;;2.53;2.33;;;17.60;55.60;;;;;;5091848;28;20199;-68
2024/01/08 11:29:03;;;;;;;2.90;2.70;;;17.60;55.60;;;;;;5098622;28;20231;-68
2024/01/08 11:31:29;;;;;;;2.92;2.70;;;17.60;55.60;;;;;;5086189;28;20189;-68
2024/01/08 11:34:35;;;;;;;3.00;2.75;;;17.70;57.60;;;;;;5091049;28;20208;-68
2024/01/08 11:37:36;;;;;;;3.38;3.08;;;17.70;56.70;;;;;;5074641;28;20190;-68
2024/01/08 11:40:17;;;;;;;3.13;2.70;;;17.70;56.50;;;;;;5091616;28;20222;-67
2024/01/08 11:42:44;;;;;;;2.65;2.45;;;17.70;56.40;;;;;;5091542;28;20188;-68
2024/01/08 11:45:10;;;;;;;2.88;2.67;;;17.70;56.40;;;;;;5099007;28;20271;-67
2024/01/08 11:47:37;;;;;;;3.35;2.70;;;17.70;56.40;;;;;;5081472;28;20185;-68
2024/01/08 11:50:05;;;;;;;2.70;2.50;;;17.70;56.30;;;;;;5098380;28;20189;-68
2024/01/08 11:52:36;;;;;;;2.80;2.60;;;17.70;56.30;;;;;;5074658;28;20185;-67
2024/01/08 11:55:04;;;;;;;2.55;2.35;;;17.70;56.30;;;;;;5091175;28;20212;-68
2024/01/08 11:57:31;;;;;;;2.60;2.40;;;17.70;56.30;;;;;;5099661;28;20181;-68
2024/01/08 11:59:57;;;;;;;2.83;2.63;;;17.70;56.20;;;;;;5074587;28;20203;-68
2024/01/08 12:02:27;;;;;;;3.03;2.72;;;17.60;56.10;;;;;;5102677;28;20184;-68
2024/01/08 12:04:57;;;;;;;2.83;2.60;;;17.60;56.20;;;;;;5104978;27;20256;-67
2024/01/08 12:07:28;;;;;;;2.63;2.42;;;17.70;56.20;;;;;;5083540;28;20189;-67
2024/01/08 12:09:57;;;;;;;2.78;2.58;;;17.70;56.20;;;;;;5091075;28;20213;-68
2024/01/08 12:12:24;;;;;;;2.83;2.63;;;17.60;56.00;;;;;;5095247;28;20195;-67
2024/01/08 12:14:52;;;;;;;3.20;2.90;;;17.60;56.00;;;;;;5100492;28;20220;-68
2024/01/08 12:17:19;;;;;;;3.00;2.70;;;17.60;56.00;;;;;;5095174;28;20188;-67
2024/01/08 12:19:54;;;;;;;2.80;2.60;;;17.60;56.00;;;;;;5089089;28;20192;-67
2024/01/08 12:22:26;;;;;;;2.85;2.60;;;17.70;56.00;;;;;;5082381;28;20227;-67
2024/01/08 12:24:55;;;;;;;2.70;2.50;;;17.70;56.00;;;;;;5097583;28;20234;-67
2024/01/08 12:27:23;;;;;;;2.92;2.63;;;17.60;55.90;;;;;;5085954;28;20181;-67
2024/01/08 12:29:50;;;;;;;2.60;2.40;;;17.60;55.90;;;;;;5091637;28;20203;-68
2024/01/08 12:32:20;;;;;;;2.95;2.75;;;17.60;55.80;;;;;;5070983;28;20667;-67
2024/01/08 12:34:47;;;;;;;3.00;2.70;;;17.60;55.90;;;;;;5089346;28;20220;-68
2024/01/08 12:37:15;;;;;;;2.65;2.45;;;17.60;55.90;;;;;;5081732;28;20184;-67
2024/01/08 12:39:44;;;;;;;2.65;2.45;;;17.60;55.80;;;;;;5073809;28;20185;-67
2024/01/08 12:42:14;;;;;;;2.70;2.50;;;17.60;55.90;;;;;;5072488;28;20192;-67
2024/01/08 12:44:41;;;;;;;2.97;2.50;;;17.60;55.80;;;;;;5073691;28;20307;-68
2024/01/08 12:47:07;;;;;;;2.70;2.50;;;17.60;55.80;;;;;;5080249;28;20271;-68